• Join FlightAware (Why Join?)
  • Login
  • US Flag 
01:55PM EDT


 

Airport Tracker/Info


-or-


 

Live Flight TrackerFlight Track Log ✈ AWE1048 ✈ 02-May-2012 ✈ KCLT - KDTW

Flight Track Log - Related Links

Times and Time Zones

All times are in EDT time to prevent confusion due to time zone crossing. See the AWE1048 flight status page for this flight to view local times or setup timezone preferences in your user account.

Time Position Orientation Groundspeed Altitude Reporting Facility
EDT Latitude Longitude Course Direction KTS MPH feet Rate Location/Type
06:39PM 35.1941 -80.9314 246° West  Level FlightAware Approximate
06:39PM 35.1869 -80.9511 173° South 136 157 1,700  Level Atlanta Center
06:40PM 35.1600 -80.9472 193° South 170 196 2,800 1,800 Climbing FAA TRACON SMA TRACON (SMA)
06:41PM 35.1189 -80.9592 225° Southwest 217 250 4,200 2,220 Climbing FAA TRACON SMA TRACON (SMA)
06:41PM 35.0917 -80.9922 270° West 237 273 5,800 2,280 Climbing FAA TRACON SMA TRACON (SMA)
06:42PM 35.0917 -81.0517 274° West 258 297 7,300 1,680 Climbing FAA TRACON SMA TRACON (SMA)
06:43PM 35.0950 -81.1164 294° West 274 315 8,100 1,020 Climbing FAA TRACON SMA TRACON (SMA)
06:43PM 35.1142 -81.1700 311° West 277 319 8,700 1,860 Climbing FAA TRACON SMA TRACON (SMA)
06:44PM 35.1483 -81.2189 13° North 285 328 10,600 2,100 Climbing FAA TRACON SMA TRACON (SMA)
06:45PM 35.2086 -81.2022 28° Northeast 332 382 11,500 1,320 Climbing FAA TRACON SMA TRACON (SMA)
06:45PM 35.2636 -81.1669 North 356 410 12,400 1,620 Climbing FAA TRACON SMA TRACON (SMA)
06:46PM 35.3389 -81.1606 360° North 388 447 13,700 1,800 Climbing FAA TRACON SMA TRACON (SMA)
06:47PM 35.3989 -81.1606 360° North 396 456 14,900 840 Climbing FAA TRACON SMA TRACON (SMA)
06:47PM 35.3989 -81.1606 North 396 456 14,900 2,160 Level FAA TRACON SMA TRACON (SMA)
06:48PM 35.6114 -81.1522 359° North 405 466 18,500 2,580 Climbing Atlanta Center
06:49PM 35.7303 -81.1558 North 427 491 20,100 1,680 Climbing Atlanta Center
06:50PM 35.8533 -81.1539 North 432 497 21,900 2,280 Climbing Atlanta Center
06:51PM 35.9681 -81.1525 North 426 490 24,700 2,160 Climbing Atlanta Center
06:52PM 36.0828 -81.1508 North 420 483 26,300 1,380 Climbing Atlanta Center
06:54PM 36.3222 -81.1458 North 441 507 28,800 1,200 Climbing FlightAware ADS-B
06:55PM 36.3855 -81.1448 North 444 511 29,400 720 Climbing FlightAware ADS-B
06:55PM 36.4453 -81.1431 353° North 433 498 29,600 420 Climbing Atlanta Center
06:56PM 36.5731 -81.1617 352° North 444 511 30,100 780 Climbing Atlanta Center
06:57PM 36.7028 -81.1856 351° North 465 535 31,200 1,440 Climbing Atlanta Center
06:59PM 36.8866 -81.2214 351° North 450 518 33,700 1,320 Climbing FlightAware ADS-B
07:00PM 37.0040 -81.2445 351° North 456 525 34,400 780 Climbing FlightAware ADS-B
07:00PM 37.0703 -81.2576 351° North 459 528 34,900 540 Climbing FlightAware ADS-B
07:01PM 37.1408 -81.2717 351° North 459 528 35,000 60 Climbing FlightAware ADS-B
07:01PM 37.2101 -81.2855 351° North 456 525 35,000 240 Level FlightAware ADS-B
07:02PM 37.2762 -81.2987 351° North 453 521 35,300 660 Climbing FlightAware ADS-B
07:03PM 37.3915 -81.3217 351° North 452 520 36,000 480 Climbing FlightAware ADS-B
07:03PM 37.4545 -81.3343 351° North 448 516 36,000  Level FlightAware ADS-B
07:04PM 37.5170 -81.3468 351° North 446 513 36,000  Level FlightAware ADS-B
07:04PM 37.5866 -81.3608 351° North 447 514 36,000  Level FlightAware ADS-B
07:05PM 37.6541 -81.3743 351° North 447 514 36,000  Level FlightAware ADS-B
07:05PM 37.7183 -81.3872 351° North 445 512 36,000  Level FlightAware ADS-B
07:06PM 37.7804 -81.3999 351° North 444 511 36,000  Level FlightAware ADS-B
07:07PM 37.8511 -81.4144 351° North 443 510 36,000  Level FlightAware ADS-B
07:07PM 37.9357 -81.4317 351° North 444 511 36,000  Level FlightAware ADS-B
07:08PM 37.9969 -81.4443 351° North 446 513 36,000  Level FlightAware ADS-B
07:09PM 38.0979 -81.4650 351° North 449 517 36,000  Level FlightAware ADS-B
07:09PM 38.1600 -81.4778 349° North 449 517 36,000 -540 Level FlightAware ADS-B
07:10PM 38.2606 -81.5019 352° North 446 513 35,200 -900 Descending Indianapolis Center
07:11PM 38.3842 -81.5250 350° North 446 513 34,300 -600 Descending Indianapolis Center
07:12PM 38.5097 -81.5533 350° North 452 520 34,000 -180 Descending Indianapolis Center
07:13PM 38.6394 -81.5817 351° North 452 520 34,000  Level Indianapolis Center
07:14PM 38.7672 -81.6075 351° North 470 541 34,000 -180 Level Indianapolis Center
07:15PM 38.9094 -81.6356 351° North 470 541 33,700 -660 Descending Indianapolis Center
07:16PM 39.0331 -81.6617 351° North 464 534 32,700 -1,020 Descending Indianapolis Center
07:17PM 39.1606 -81.6878 350° North 459 528 31,700 -960 Descending Indianapolis Center
07:18PM 39.2883 -81.7167 349° North 459 528 30,800 -900 Descending Indianapolis Center
07:19PM 39.4158 -81.7483 344° North 464 534 30,000 -420 Descending Indianapolis Center
07:20PM 39.5439 -81.7961 343° North 469 540 30,000  Level Indianapolis Center
07:21PM 39.6697 -81.8469 349° North 475 547 30,000  Level Indianapolis Center
07:22PM 39.7931 -81.8792 353° North 470 541 30,000 -60 Level Indianapolis Center
07:23PM 39.9228 -81.9003 352° North 470 541 29,900  Descending Indianapolis Center
07:24PM 40.0544 -81.9244 352° North 470 541 30,000  Climbing Indianapolis Center
07:25PM 40.1861 -81.9472 352° North 470 541 29,900  Descending Cleveland Center
07:26PM 40.3192 -81.9719 352° North 479 551 30,000  Climbing Cleveland Center
07:27PM 40.4481 -81.9964 347° North 474 545 30,000  Level Cleveland Center
07:28PM 40.5769 -82.0347 333° Northwest 474 545 30,000  Level Cleveland Center
07:29PM 40.6928 -82.1111 335° Northwest 468 539 30,000 -420 Level Cleveland Center
07:30PM 40.8106 -82.1853 333° Northwest 468 539 29,200 -900 Descending Cleveland Center
07:31PM 40.9303 -82.2650 334° Northwest 468 539 28,200 -1,020 Descending Cleveland Center
07:32PM 41.0481 -82.3397 335° Northwest 468 539 27,200 -1,740 Descending Cleveland Center
07:33PM 41.1553 -82.4061 333° Northwest 463 533 24,800 -2,580 Descending Cleveland Center
07:34PM 41.2667 -82.4811 334° Northwest 458 527 22,100 -2,640 Descending Cleveland Center
07:35PM 41.3697 -82.5478 334° Northwest 431 496 19,600 -2,580 Descending Cleveland Center
07:36PM 41.4708 -82.6144 334° Northwest 409 471 17,000 -2,820 Descending Cleveland Center
07:37PM 41.5781 -82.6844 333° Northwest 394 453 14,100 -2,400 Descending Cleveland Center
07:38PM 41.6808 -82.7544 328° Northwest 370 426 12,000 -1,080 Descending Cleveland Center
07:39PM 41.7547 -82.8156 319° Northwest 365 420 12,000  Level Cleveland Center
07:40PM 41.8281 -82.9017 319° Northwest 354 407 12,000  Level Cleveland Center
07:41PM 41.8911 -82.9764 317° Northwest 341 392 12,000  Level Cleveland Center
07:42PM 41.9561 -83.0569 318° Northwest 332 382 12,000  Level Cleveland Center
07:43PM 42.0233 -83.1381 317° Northwest 327 376 12,000  Level Cleveland Center
07:44PM 42.0922 -83.2247 324° Northwest 320 368 12,000 -420 Level Cleveland Center
07:45PM 42.1319 -83.2631 10° North 277 319 11,400 -900 Descending FAA TRACON SMA TRACON (SMA)
07:45PM 42.1778 -83.2525 26° Northeast 268 308 10,900 -1,440 Descending FAA TRACON SMA TRACON (SMA)
07:46PM 42.2233 -83.2231 28° Northeast 263 303 9,500 -1,680 Descending FAA TRACON SMA TRACON (SMA)
07:47PM 42.2658 -83.1931 28° Northeast 257 296 8,700 -1,320 Descending FAA TRACON SMA TRACON (SMA)
07:47PM 42.3011 -83.1672 21° North 225 259 7,800 -1,740 Descending FAA TRACON SMA TRACON (SMA)
07:48PM 42.3350 -83.1500 303° West 210 242 6,400 -2,280 Descending FAA TRACON SMA TRACON (SMA)
07:49PM 42.3522 -83.1858 260° West 183 211 4,800 -2,280 Descending FAA TRACON SMA TRACON (SMA)
07:49PM 42.3464 -83.2303 260° West 183 211 3,400 -2,100 Descending FAA TRACON SMA TRACON (SMA)